sensor_id;sensor_type;location;lat;lon;timestamp;P1;durP1;ratioP1;P2;durP2;ratioP2
16770;SDS011;8503;52.472;13.344;2024-03-07T00:01:13;0.00;;;0.00;;
16770;SDS011;8503;52.472;13.344;2024-03-07T00:02:37;0.00;;;0.00;;
16770;SDS011;8503;52.472;13.344;2024-03-07T00:04:00;0.00;;;0.00;;
16770;SDS011;8503;52.472;13.344;2024-03-07T00:05:25;0.00;;;0.00;;
16770;SDS011;8503;52.472;13.344;2024-03-07T00:06:47;0.00;;;0.00;;
16770;SDS011;8503;52.472;13.344;2024-03-07T00:08:11;0.00;;;0.00;;
16770;SDS011;8503;52.472;13.344;2024-03-07T00:09:34;0.00;;;0.00;;
16770;SDS011;8503;52.472;13.344;2024-03-07T00:10:57;0.00;;;0.00;;
16770;SDS011;8503;52.472;13.344;2024-03-07T00:12:20;0.00;;;0.00;;
16770;SDS011;8503;52.472;13.344;2024-03-07T00:13:44;0.00;;;0.00;;
16770;SDS011;8503;52.472;13.344;2024-03-07T00:15:07;0.00;;;0.00;;
16770;SDS011;8503;52.472;13.344;2024-03-07T00:16:31;0.00;;;0.00;;
16770;SDS011;8503;52.472;13.344;2024-03-07T00:17:55;0.00;;;0.00;;
16770;SDS011;8503;52.472;13.344;2024-03-07T00:19:17;0.00;;;0.00;;
16770;SDS011;8503;52.472;13.344;2024-03-07T00:20:42;0.00;;;0.00;;
16770;SDS011;8503;52.472;13.344;2024-03-07T00:22:05;0.00;;;0.00;;
16770;SDS011;8503;52.472;13.344;2024-03-07T00:23:28;0.00;;;0.00;;
16770;SDS011;8503;52.472;13.344;2024-03-07T00:24:52;0.00;;;0.00;;
16770;SDS011;8503;52.472;13.344;2024-03-07T00:26:15;0.00;;;0.00;;
16770;SDS011;8503;52.472;13.344;2024-03-07T00:27:39;0.00;;;0.00;;
16770;SDS011;8503;52.472;13.344;2024-03-07T00:29:01;0.00;;;0.00;;
16770;SDS011;8503;52.472;13.344;2024-03-07T00:30:25;0.00;;;0.00;;
16770;SDS011;8503;52.472;13.344;2024-03-07T00:31:50;0.00;;;0.00;;
16770;SDS011;8503;52.472;13.344;2024-03-07T00:33:14;0.10;;;0.00;;
16770;SDS011;8503;52.472;13.344;2024-03-07T00:34:37;0.00;;;0.00;;
16770;SDS011;8503;52.472;13.344;2024-03-07T00:36:02;0.00;;;0.00;;
16770;SDS011;8503;52.472;13.344;2024-03-07T00:38:51;0.00;;;0.00;;
16770;SDS011;8503;52.472;13.344;2024-03-07T00:40:14;0.00;;;0.00;;
16770;SDS011;8503;52.472;13.344;2024-03-07T00:41:37;0.00;;;0.00;;
16770;SDS011;8503;52.472;13.344;2024-03-07T00:43:00;0.00;;;0.00;;
16770;SDS011;8503;52.472;13.344;2024-03-07T00:44:25;0.00;;;0.00;;
16770;SDS011;8503;52.472;13.344;2024-03-07T00:45:47;0.00;;;0.00;;
16770;SDS011;8503;52.472;13.344;2024-03-07T00:47:11;0.00;;;0.00;;
16770;SDS011;8503;52.472;13.344;2024-03-07T00:48:34;0.00;;;0.00;;
16770;SDS011;8503;52.472;13.344;2024-03-07T00:49:57;0.00;;;0.00;;
16770;SDS011;8503;52.472;13.344;2024-03-07T00:51:21;0.00;;;0.00;;
16770;SDS011;8503;52.472;13.344;2024-03-07T00:52:44;0.00;;;0.00;;
16770;SDS011;8503;52.472;13.344;2024-03-07T00:54:09;0.00;;;0.00;;
16770;SDS011;8503;52.472;13.344;2024-03-07T00:55:34;0.00;;;0.00;;
16770;SDS011;8503;52.472;13.344;2024-03-07T00:56:57;0.00;;;0.00;;
16770;SDS011;8503;52.472;13.344;2024-03-07T00:58:20;0.00;;;0.00;;
16770;SDS011;8503;52.472;13.344;2024-03-07T00:59:44;0.00;;;0.00;;
16770;SDS011;8503;52.472;13.344;2024-03-07T01:01:06;0.00;;;0.00;;
16770;SDS011;8503;52.472;13.344;2024-03-07T01:02:32;0.00;;;0.00;;
16770;SDS011;8503;52.472;13.344;2024-03-07T01:03:55;0.10;;;0.00;;
16770;SDS011;8503;52.472;13.344;2024-03-07T01:05:19;0.00;;;0.00;;
16770;SDS011;8503;52.472;13.344;2024-03-07T01:06:43;0.00;;;0.00;;
16770;SDS011;8503;52.472;13.344;2024-03-07T01:08:07;0.00;;;0.00;;
16770;SDS011;8503;52.472;13.344;2024-03-07T01:09:29;0.00;;;0.00;;
16770;SDS011;8503;52.472;13.344;2024-03-07T01:10:52;0.00;;;0.00;;
16770;SDS011;8503;52.472;13.344;2024-03-07T01:12:15;0.00;;;0.00;;
16770;SDS011;8503;52.472;13.344;2024-03-07T01:13:41;0.00;;;0.00;;
16770;SDS011;8503;52.472;13.344;2024-03-07T01:15:04;0.00;;;0.00;;
16770;SDS011;8503;52.472;13.344;2024-03-07T01:16:28;0.00;;;0.00;;
16770;SDS011;8503;52.472;13.344;2024-03-07T01:17:50;0.00;;;0.00;;
16770;SDS011;8503;52.472;13.344;2024-03-07T01:19:14;0.00;;;0.00;;
16770;SDS011;8503;52.472;13.344;2024-03-07T01:20:36;0.00;;;0.00;;
16770;SDS011;8503;52.472;13.344;2024-03-07T01:22:01;0.00;;;0.00;;
16770;SDS011;8503;52.472;13.344;2024-03-07T01:23:24;0.00;;;0.00;;
16770;SDS011;8503;52.472;13.344;2024-03-07T01:24:48;0.00;;;0.00;;
16770;SDS011;8503;52.472;13.344;2024-03-07T01:26:12;0.00;;;0.00;;
16770;SDS011;8503;52.472;13.344;2024-03-07T01:27:35;0.00;;;0.00;;
16770;SDS011;8503;52.472;13.344;2024-03-07T01:28:58;0.00;;;0.00;;
16770;SDS011;8503;52.472;13.344;2024-03-07T01:30:21;0.00;;;0.00;;
16770;SDS011;8503;52.472;13.344;2024-03-07T01:31:46;0.00;;;0.00;;
16770;SDS011;8503;52.472;13.344;2024-03-07T01:33:10;0.00;;;0.00;;
16770;SDS011;8503;52.472;13.344;2024-03-07T01:34:33;0.00;;;0.00;;
16770;SDS011;8503;52.472;13.344;2024-03-07T01:35:56;0.00;;;0.00;;
16770;SDS011;8503;52.472;13.344;2024-03-07T01:37:21;0.00;;;0.00;;
16770;SDS011;8503;52.472;13.344;2024-03-07T01:38:44;0.00;;;0.00;;
16770;SDS011;8503;52.472;13.344;2024-03-07T01:40:09;0.10;;;0.00;;
16770;SDS011;8503;52.472;13.344;2024-03-07T01:41:32;0.00;;;0.00;;
16770;SDS011;8503;52.472;13.344;2024-03-07T01:44:47;0.00;;;0.00;;
16770;SDS011;8503;52.472;13.344;2024-03-07T01:46:14;0.00;;;0.00;;
16770;SDS011;8503;52.472;13.344;2024-03-07T01:47:37;0.00;;;0.00;;
16770;SDS011;8503;52.472;13.344;2024-03-07T01:49:01;0.00;;;0.00;;
16770;SDS011;8503;52.472;13.344;2024-03-07T01:50:23;0.00;;;0.00;;
16770;SDS011;8503;52.472;13.344;2024-03-07T01:51:48;0.03;;;0.00;;
16770;SDS011;8503;52.472;13.344;2024-03-07T01:53:11;0.00;;;0.00;;
16770;SDS011;8503;52.472;13.344;2024-03-07T01:54:36;0.00;;;0.00;;
16770;SDS011;8503;52.472;13.344;2024-03-07T01:55:58;0.00;;;0.00;;
16770;SDS011;8503;52.472;13.344;2024-03-07T01:57:23;0.00;;;0.00;;
16770;SDS011;8503;52.472;13.344;2024-03-07T01:58:46;0.00;;;0.00;;
16770;SDS011;8503;52.472;13.344;2024-03-07T02:00:10;0.00;;;0.00;;
16770;SDS011;8503;52.472;13.344;2024-03-07T02:01:34;0.00;;;0.00;;
16770;SDS011;8503;52.472;13.344;2024-03-07T02:02:58;0.00;;;0.00;;
16770;SDS011;8503;52.472;13.344;2024-03-07T02:04:21;0.00;;;0.00;;
16770;SDS011;8503;52.472;13.344;2024-03-07T02:05:46;0.00;;;0.00;;
16770;SDS011;8503;52.472;13.344;2024-03-07T02:07:08;0.00;;;0.00;;
16770;SDS011;8503;52.472;13.344;2024-03-07T02:08:34;0.00;;;0.00;;
16770;SDS011;8503;52.472;13.344;2024-03-07T02:09:59;0.00;;;0.00;;
16770;SDS011;8503;52.472;13.344;2024-03-07T02:11:23;0.00;;;0.00;;
16770;SDS011;8503;52.472;13.344;2024-03-07T02:12:46;0.00;;;0.00;;
16770;SDS011;8503;52.472;13.344;2024-03-07T02:14:09;0.00;;;0.00;;
16770;SDS011;8503;52.472;13.344;2024-03-07T02:15:32;0.00;;;0.00;;
16770;SDS011;8503;52.472;13.344;2024-03-07T02:16:55;0.00;;;0.00;;
16770;SDS011;8503;52.472;13.344;2024-03-07T02:18:18;0.00;;;0.00;;
16770;SDS011;8503;52.472;13.344;2024-03-07T02:19:42;0.00;;;0.00;;
16770;SDS011;8503;52.472;13.344;2024-03-07T02:21:07;0.00;;;0.00;;
16770;SDS011;8503;52.472;13.344;2024-03-07T02:22:32;0.00;;;0.00;;
16770;SDS011;8503;52.472;13.344;2024-03-07T02:23:55;0.00;;;0.00;;
16770;SDS011;8503;52.472;13.344;2024-03-07T02:25:19;0.00;;;0.00;;
16770;SDS011;8503;52.472;13.344;2024-03-07T02:26:41;0.00;;;0.00;;
16770;SDS011;8503;52.472;13.344;2024-03-07T02:28:05;0.00;;;0.00;;
16770;SDS011;8503;52.472;13.344;2024-03-07T02:29:27;0.00;;;0.00;;
16770;SDS011;8503;52.472;13.344;2024-03-07T02:30:52;0.00;;;0.00;;
16770;SDS011;8503;52.472;13.344;2024-03-07T02:32:14;0.00;;;0.00;;
16770;SDS011;8503;52.472;13.344;2024-03-07T02:33:38;0.00;;;0.00;;
16770;SDS011;8503;52.472;13.344;2024-03-07T02:35:02;0.00;;;0.00;;
16770;SDS011;8503;52.472;13.344;2024-03-07T02:36:27;0.00;;;0.00;;
16770;SDS011;8503;52.472;13.344;2024-03-07T02:37:51;0.00;;;0.00;;
16770;SDS011;8503;52.472;13.344;2024-03-07T02:39:14;0.00;;;0.00;;
16770;SDS011;8503;52.472;13.344;2024-03-07T02:40:37;0.00;;;0.00;;
16770;SDS011;8503;52.472;13.344;2024-03-07T02:42:01;0.00;;;0.00;;
16770;SDS011;8503;52.472;13.344;2024-03-07T02:43:23;0.00;;;0.00;;
16770;SDS011;8503;52.472;13.344;2024-03-07T02:44:47;0.00;;;0.00;;
16770;SDS011;8503;52.472;13.344;2024-03-07T02:46:10;0.00;;;0.00;;
16770;SDS011;8503;52.472;13.344;2024-03-07T02:47:34;0.00;;;0.00;;
16770;SDS011;8503;52.472;13.344;2024-03-07T02:48:59;0.00;;;0.00;;
16770;SDS011;8503;52.472;13.344;2024-03-07T02:50:23;0.00;;;0.00;;
16770;SDS011;8503;52.472;13.344;2024-03-07T02:51:47;0.00;;;0.00;;
16770;SDS011;8503;52.472;13.344;2024-03-07T02:53:13;0.00;;;0.00;;
16770;SDS011;8503;52.472;13.344;2024-03-07T02:54:36;0.00;;;0.00;;
16770;SDS011;8503;52.472;13.344;2024-03-07T02:55:59;0.00;;;0.00;;
16770;SDS011;8503;52.472;13.344;2024-03-07T02:57:22;0.00;;;0.00;;
16770;SDS011;8503;52.472;13.344;2024-03-07T02:58:46;0.00;;;0.00;;
16770;SDS011;8503;52.472;13.344;2024-03-07T03:00:09;0.00;;;0.00;;
16770;SDS011;8503;52.472;13.344;2024-03-07T03:01:41;0.00;;;0.00;;
16770;SDS011;8503;52.472;13.344;2024-03-07T03:03:04;0.00;;;0.00;;
16770;SDS011;8503;52.472;13.344;2024-03-07T03:04:27;0.00;;;0.00;;
16770;SDS011;8503;52.472;13.344;2024-03-07T03:05:50;0.00;;;0.00;;
16770;SDS011;8503;52.472;13.344;2024-03-07T03:07:14;0.00;;;0.00;;
16770;SDS011;8503;52.472;13.344;2024-03-07T03:08:38;0.00;;;0.00;;
16770;SDS011;8503;52.472;13.344;2024-03-07T03:10:01;0.00;;;0.00;;
16770;SDS011;8503;52.472;13.344;2024-03-07T03:11:31;0.00;;;0.00;;
16770;SDS011;8503;52.472;13.344;2024-03-07T03:12:53;0.00;;;0.00;;
16770;SDS011;8503;52.472;13.344;2024-03-07T03:14:19;0.00;;;0.00;;
16770;SDS011;8503;52.472;13.344;2024-03-07T03:15:42;0.00;;;0.00;;
16770;SDS011;8503;52.472;13.344;2024-03-07T03:17:06;0.00;;;0.00;;
16770;SDS011;8503;52.472;13.344;2024-03-07T03:18:30;0.00;;;0.00;;
16770;SDS011;8503;52.472;13.344;2024-03-07T03:19:55;0.00;;;0.00;;
16770;SDS011;8503;52.472;13.344;2024-03-07T03:21:18;0.03;;;0.00;;
16770;SDS011;8503;52.472;13.344;2024-03-07T03:22:42;0.00;;;0.00;;
16770;SDS011;8503;52.472;13.344;2024-03-07T03:24:05;0.03;;;0.00;;
16770;SDS011;8503;52.472;13.344;2024-03-07T03:25:29;0.00;;;0.00;;
16770;SDS011;8503;52.472;13.344;2024-03-07T03:26:54;0.00;;;0.00;;
16770;SDS011;8503;52.472;13.344;2024-03-07T03:28:18;0.00;;;0.00;;
16770;SDS011;8503;52.472;13.344;2024-03-07T03:29:42;0.00;;;0.00;;
16770;SDS011;8503;52.472;13.344;2024-03-07T03:31:07;0.00;;;0.00;;
16770;SDS011;8503;52.472;13.344;2024-03-07T03:32:31;0.00;;;0.00;;
16770;SDS011;8503;52.472;13.344;2024-03-07T03:33:53;0.00;;;0.00;;
16770;SDS011;8503;52.472;13.344;2024-03-07T03:35:17;0.00;;;0.00;;
16770;SDS011;8503;52.472;13.344;2024-03-07T03:36:40;0.00;;;0.00;;
16770;SDS011;8503;52.472;13.344;2024-03-07T03:38:06;0.00;;;0.00;;
16770;SDS011;8503;52.472;13.344;2024-03-07T03:39:28;0.00;;;0.00;;
16770;SDS011;8503;52.472;13.344;2024-03-07T03:40:52;0.00;;;0.00;;
16770;SDS011;8503;52.472;13.344;2024-03-07T03:42:14;0.00;;;0.00;;
16770;SDS011;8503;52.472;13.344;2024-03-07T03:43:38;0.00;;;0.00;;
16770;SDS011;8503;52.472;13.344;2024-03-07T03:45:02;0.00;;;0.00;;
16770;SDS011;8503;52.472;13.344;2024-03-07T03:46:27;0.00;;;0.00;;
16770;SDS011;8503;52.472;13.344;2024-03-07T03:47:50;0.00;;;0.00;;
16770;SDS011;8503;52.472;13.344;2024-03-07T03:49:13;0.00;;;0.00;;
16770;SDS011;8503;52.472;13.344;2024-03-07T03:50:37;0.00;;;0.00;;
16770;SDS011;8503;52.472;13.344;2024-03-07T03:51:59;0.00;;;0.00;;
16770;SDS011;8503;52.472;13.344;2024-03-07T03:53:24;0.00;;;0.00;;
16770;SDS011;8503;52.472;13.344;2024-03-07T03:54:47;0.00;;;0.00;;
16770;SDS011;8503;52.472;13.344;2024-03-07T03:56:10;0.00;;;0.00;;
16770;SDS011;8503;52.472;13.344;2024-03-07T03:57:34;0.05;;;0.00;;
16770;SDS011;8503;52.472;13.344;2024-03-07T03:58:56;0.00;;;0.00;;
16770;SDS011;8503;52.472;13.344;2024-03-07T04:00:22;0.00;;;0.00;;
16770;SDS011;8503;52.472;13.344;2024-03-07T04:01:45;0.00;;;0.00;;
16770;SDS011;8503;52.472;13.344;2024-03-07T04:03:09;0.00;;;0.00;;
16770;SDS011;8503;52.472;13.344;2024-03-07T04:04:31;0.00;;;0.00;;
16770;SDS011;8503;52.472;13.344;2024-03-07T04:05:55;0.00;;;0.00;;
16770;SDS011;8503;52.472;13.344;2024-03-07T04:07:17;0.00;;;0.00;;
16770;SDS011;8503;52.472;13.344;2024-03-07T04:08:43;0.00;;;0.00;;
16770;SDS011;8503;52.472;13.344;2024-03-07T04:10:05;0.00;;;0.00;;
16770;SDS011;8503;52.472;13.344;2024-03-07T04:11:29;0.00;;;0.00;;
16770;SDS011;8503;52.472;13.344;2024-03-07T04:12:52;0.00;;;0.00;;
16770;SDS011;8503;52.472;13.344;2024-03-07T04:14:15;0.00;;;0.00;;
16770;SDS011;8503;52.472;13.344;2024-03-07T04:15:38;0.00;;;0.00;;
16770;SDS011;8503;52.472;13.344;2024-03-07T04:17:05;0.00;;;0.00;;
16770;SDS011;8503;52.472;13.344;2024-03-07T04:18:29;0.00;;;0.00;;
16770;SDS011;8503;52.472;13.344;2024-03-07T04:21:16;0.00;;;0.00;;
16770;SDS011;8503;52.472;13.344;2024-03-07T04:22:40;0.00;;;0.00;;
16770;SDS011;8503;52.472;13.344;2024-03-07T04:24:04;0.00;;;0.00;;
16770;SDS011;8503;52.472;13.344;2024-03-07T04:25:32;0.00;;;0.00;;
16770;SDS011;8503;52.472;13.344;2024-03-07T04:26:54;0.00;;;0.00;;
16770;SDS011;8503;52.472;13.344;2024-03-07T04:28:17;0.00;;;0.00;;
16770;SDS011;8503;52.472;13.344;2024-03-07T04:29:41;0.00;;;0.00;;
16770;SDS011;8503;52.472;13.344;2024-03-07T04:31:04;0.00;;;0.00;;
16770;SDS011;8503;52.472;13.344;2024-03-07T04:32:27;0.00;;;0.00;;
16770;SDS011;8503;52.472;13.344;2024-03-07T04:33:50;0.00;;;0.00;;
16770;SDS011;8503;52.472;13.344;2024-03-07T04:35:13;0.00;;;0.00;;
16770;SDS011;8503;52.472;13.344;2024-03-07T04:36:40;0.00;;;0.00;;
16770;SDS011;8503;52.472;13.344;2024-03-07T04:38:03;0.10;;;0.00;;
16770;SDS011;8503;52.472;13.344;2024-03-07T04:39:32;0.00;;;0.00;;
16770;SDS011;8503;52.472;13.344;2024-03-07T04:40:54;0.00;;;0.00;;
16770;SDS011;8503;52.472;13.344;2024-03-07T04:42:18;0.00;;;0.00;;
16770;SDS011;8503;52.472;13.344;2024-03-07T04:43:40;0.00;;;0.00;;
16770;SDS011;8503;52.472;13.344;2024-03-07T04:45:10;0.00;;;0.00;;
16770;SDS011;8503;52.472;13.344;2024-03-07T04:46:34;0.00;;;0.00;;
16770;SDS011;8503;52.472;13.344;2024-03-07T04:48:04;0.00;;;0.00;;
16770;SDS011;8503;52.472;13.344;2024-03-07T04:49:28;0.00;;;0.00;;
16770;SDS011;8503;52.472;13.344;2024-03-07T04:52:14;0.00;;;0.00;;
16770;SDS011;8503;52.472;13.344;2024-03-07T04:53:38;0.00;;;0.00;;
16770;SDS011;8503;52.472;13.344;2024-03-07T04:55:05;0.00;;;0.00;;
16770;SDS011;8503;52.472;13.344;2024-03-07T04:56:31;0.00;;;0.00;;
16770;SDS011;8503;52.472;13.344;2024-03-07T04:57:54;0.00;;;0.00;;
16770;SDS011;8503;52.472;13.344;2024-03-07T04:59:17;0.00;;;0.00;;
16770;SDS011;8503;52.472;13.344;2024-03-07T05:00:40;0.00;;;0.00;;
16770;SDS011;8503;52.472;13.344;2024-03-07T05:02:04;0.00;;;0.00;;
16770;SDS011;8503;52.472;13.344;2024-03-07T05:03:26;0.00;;;0.00;;
16770;SDS011;8503;52.472;13.344;2024-03-07T05:04:50;0.00;;;0.00;;
16770;SDS011;8503;52.472;13.344;2024-03-07T05:06:13;0.00;;;0.00;;
16770;SDS011;8503;52.472;13.344;2024-03-07T05:07:39;0.00;;;0.00;;
16770;SDS011;8503;52.472;13.344;2024-03-07T05:09:02;0.00;;;0.00;;
16770;SDS011;8503;52.472;13.344;2024-03-07T05:10:27;0.00;;;0.00;;
16770;SDS011;8503;52.472;13.344;2024-03-07T05:11:51;0.00;;;0.00;;
16770;SDS011;8503;52.472;13.344;2024-03-07T05:13:16;0.00;;;0.00;;
16770;SDS011;8503;52.472;13.344;2024-03-07T05:14:38;0.00;;;0.00;;
16770;SDS011;8503;52.472;13.344;2024-03-07T05:16:02;0.00;;;0.00;;
16770;SDS011;8503;52.472;13.344;2024-03-07T05:17:25;0.00;;;0.00;;
16770;SDS011;8503;52.472;13.344;2024-03-07T05:18:50;0.00;;;0.00;;
16770;SDS011;8503;52.472;13.344;2024-03-07T05:20:13;0.00;;;0.00;;
16770;SDS011;8503;52.472;13.344;2024-03-07T05:21:36;0.00;;;0.00;;
16770;SDS011;8503;52.472;13.344;2024-03-07T05:23:01;0.00;;;0.00;;
16770;SDS011;8503;52.472;13.344;2024-03-07T05:24:26;0.00;;;0.00;;
16770;SDS011;8503;52.472;13.344;2024-03-07T05:25:50;0.00;;;0.00;;
16770;SDS011;8503;52.472;13.344;2024-03-07T05:28:36;0.00;;;0.00;;
16770;SDS011;8503;52.472;13.344;2024-03-07T05:30:00;0.00;;;0.00;;
16770;SDS011;8503;52.472;13.344;2024-03-07T05:31:23;0.00;;;0.00;;
16770;SDS011;8503;52.472;13.344;2024-03-07T05:32:46;0.10;;;0.00;;
16770;SDS011;8503;52.472;13.344;2024-03-07T05:34:09;0.00;;;0.00;;
16770;SDS011;8503;52.472;13.344;2024-03-07T05:35:33;0.00;;;0.00;;
16770;SDS011;8503;52.472;13.344;2024-03-07T05:36:56;0.00;;;0.00;;
16770;SDS011;8503;52.472;13.344;2024-03-07T05:38:19;0.00;;;0.00;;
16770;SDS011;8503;52.472;13.344;2024-03-07T05:39:43;0.00;;;0.00;;
16770;SDS011;8503;52.472;13.344;2024-03-07T05:41:08;0.00;;;0.00;;
16770;SDS011;8503;52.472;13.344;2024-03-07T05:42:32;0.00;;;0.00;;
16770;SDS011;8503;52.472;13.344;2024-03-07T05:43:54;0.00;;;0.00;;
16770;SDS011;8503;52.472;13.344;2024-03-07T05:45:17;0.00;;;0.00;;
16770;SDS011;8503;52.472;13.344;2024-03-07T05:46:46;0.00;;;0.00;;
16770;SDS011;8503;52.472;13.344;2024-03-07T05:48:14;0.00;;;0.00;;
16770;SDS011;8503;52.472;13.344;2024-03-07T05:49:37;0.00;;;0.00;;
16770;SDS011;8503;52.472;13.344;2024-03-07T05:51:01;0.00;;;0.00;;
16770;SDS011;8503;52.472;13.344;2024-03-07T05:52:25;0.00;;;0.00;;
16770;SDS011;8503;52.472;13.344;2024-03-07T05:53:49;0.00;;;0.00;;
16770;SDS011;8503;52.472;13.344;2024-03-07T05:55:12;0.00;;;0.00;;
16770;SDS011;8503;52.472;13.344;2024-03-07T05:56:38;0.00;;;0.00;;
16770;SDS011;8503;52.472;13.344;2024-03-07T05:59:25;0.00;;;0.00;;
16770;SDS011;8503;52.472;13.344;2024-03-07T06:00:49;0.00;;;0.00;;
16770;SDS011;8503;52.472;13.344;2024-03-07T06:02:13;0.00;;;0.00;;
16770;SDS011;8503;52.472;13.344;2024-03-07T06:03:36;0.00;;;0.00;;
16770;SDS011;8503;52.472;13.344;2024-03-07T06:06:25;0.00;;;0.00;;
16770;SDS011;8503;52.472;13.344;2024-03-07T06:07:48;0.00;;;0.00;;
16770;SDS011;8503;52.472;13.344;2024-03-07T06:09:11;0.00;;;0.00;;
16770;SDS011;8503;52.472;13.344;2024-03-07T06:10:35;0.00;;;0.00;;
16770;SDS011;8503;52.472;13.344;2024-03-07T06:11:59;0.00;;;0.00;;
16770;SDS011;8503;52.472;13.344;2024-03-07T06:13:36;0.00;;;0.00;;
16770;SDS011;8503;52.472;13.344;2024-03-07T06:15:00;0.00;;;0.00;;
16770;SDS011;8503;52.472;13.344;2024-03-07T06:16:25;0.00;;;0.00;;
16770;SDS011;8503;52.472;13.344;2024-03-07T06:17:47;0.00;;;0.00;;
16770;SDS011;8503;52.472;13.344;2024-03-07T06:19:10;0.00;;;0.00;;
16770;SDS011;8503;52.472;13.344;2024-03-07T06:20:34;0.00;;;0.00;;
16770;SDS011;8503;52.472;13.344;2024-03-07T06:21:57;0.00;;;0.00;;
16770;SDS011;8503;52.472;13.344;2024-03-07T06:23:20;0.00;;;0.00;;
16770;SDS011;8503;52.472;13.344;2024-03-07T06:24:43;0.00;;;0.00;;
16770;SDS011;8503;52.472;13.344;2024-03-07T06:26:05;0.00;;;0.00;;
16770;SDS011;8503;52.472;13.344;2024-03-07T06:27:35;0.00;;;0.00;;
16770;SDS011;8503;52.472;13.344;2024-03-07T06:29:08;0.00;;;0.00;;
16770;SDS011;8503;52.472;13.344;2024-03-07T06:30:32;0.00;;;0.00;;
16770;SDS011;8503;52.472;13.344;2024-03-07T06:31:55;0.00;;;0.00;;
16770;SDS011;8503;52.472;13.344;2024-03-07T06:33:20;0.00;;;0.00;;
16770;SDS011;8503;52.472;13.344;2024-03-07T06:34:47;0.00;;;0.00;;
16770;SDS011;8503;52.472;13.344;2024-03-07T06:36:11;0.00;;;0.00;;
16770;SDS011;8503;52.472;13.344;2024-03-07T06:37:33;0.00;;;0.00;;
16770;SDS011;8503;52.472;13.344;2024-03-07T06:39:00;0.00;;;0.00;;
16770;SDS011;8503;52.472;13.344;2024-03-07T06:40:24;0.00;;;0.00;;
16770;SDS011;8503;52.472;13.344;2024-03-07T06:41:48;0.00;;;0.00;;
16770;SDS011;8503;52.472;13.344;2024-03-07T06:43:15;0.00;;;0.00;;
16770;SDS011;8503;52.472;13.344;2024-03-07T06:44:38;0.00;;;0.00;;
16770;SDS011;8503;52.472;13.344;2024-03-07T06:46:03;0.00;;;0.00;;
16770;SDS011;8503;52.472;13.344;2024-03-07T06:47:25;0.00;;;0.00;;
16770;SDS011;8503;52.472;13.344;2024-03-07T06:48:55;0.10;;;0.10;;
16770;SDS011;8503;52.472;13.344;2024-03-07T06:50:18;0.00;;;0.00;;
16770;SDS011;8503;52.472;13.344;2024-03-07T06:51:57;0.00;;;0.00;;
16770;SDS011;8503;52.472;13.344;2024-03-07T06:53:20;0.00;;;0.00;;
16770;SDS011;8503;52.472;13.344;2024-03-07T06:54:48;0.00;;;0.00;;
16770;SDS011;8503;52.472;13.344;2024-03-07T06:56:11;0.10;;;0.10;;
16770;SDS011;8503;52.472;13.344;2024-03-07T06:57:34;0.00;;;0.00;;
16770;SDS011;8503;52.472;13.344;2024-03-07T06:58:59;0.10;;;0.10;;
16770;SDS011;8503;52.472;13.344;2024-03-07T07:00:25;0.00;;;0.00;;
16770;SDS011;8503;52.472;13.344;2024-03-07T07:03:15;0.05;;;0.05;;
16770;SDS011;8503;52.472;13.344;2024-03-07T07:04:38;0.00;;;0.00;;
16770;SDS011;8503;52.472;13.344;2024-03-07T07:06:04;0.00;;;0.00;;
16770;SDS011;8503;52.472;13.344;2024-03-07T07:07:27;0.10;;;0.10;;
16770;SDS011;8503;52.472;13.344;2024-03-07T07:08:50;0.05;;;0.05;;
16770;SDS011;8503;52.472;13.344;2024-03-07T07:10:14;0.10;;;0.10;;
16770;SDS011;8503;52.472;13.344;2024-03-07T07:11:39;0.10;;;0.10;;
16770;SDS011;8503;52.472;13.344;2024-03-07T07:13:02;0.10;;;0.10;;
16770;SDS011;8503;52.472;13.344;2024-03-07T07:14:27;0.10;;;0.10;;
16770;SDS011;8503;52.472;13.344;2024-03-07T07:15:50;0.10;;;0.10;;
16770;SDS011;8503;52.472;13.344;2024-03-07T07:17:14;0.10;;;0.10;;
16770;SDS011;8503;52.472;13.344;2024-03-07T07:18:37;0.10;;;0.10;;
16770;SDS011;8503;52.472;13.344;2024-03-07T07:20:00;0.10;;;0.10;;
16770;SDS011;8503;52.472;13.344;2024-03-07T07:21:30;0.10;;;0.10;;
16770;SDS011;8503;52.472;13.344;2024-03-07T07:22:56;0.10;;;0.10;;
16770;SDS011;8503;52.472;13.344;2024-03-07T07:24:22;0.20;;;0.20;;
16770;SDS011;8503;52.472;13.344;2024-03-07T07:25:46;0.20;;;0.20;;
16770;SDS011;8503;52.472;13.344;2024-03-07T07:27:09;0.10;;;0.10;;
16770;SDS011;8503;52.472;13.344;2024-03-07T07:28:32;0.10;;;0.10;;
16770;SDS011;8503;52.472;13.344;2024-03-07T07:29:58;0.10;;;0.10;;
16770;SDS011;8503;52.472;13.344;2024-03-07T07:31:22;0.10;;;0.10;;
16770;SDS011;8503;52.472;13.344;2024-03-07T07:32:45;0.10;;;0.10;;
16770;SDS011;8503;52.472;13.344;2024-03-07T07:34:08;0.10;;;0.10;;
16770;SDS011;8503;52.472;13.344;2024-03-07T07:35:31;0.10;;;0.10;;
16770;SDS011;8503;52.472;13.344;2024-03-07T07:36:55;0.20;;;0.20;;
16770;SDS011;8503;52.472;13.344;2024-03-07T07:38:19;0.10;;;0.10;;
16770;SDS011;8503;52.472;13.344;2024-03-07T07:39:42;0.10;;;0.10;;
16770;SDS011;8503;52.472;13.344;2024-03-07T07:41:05;0.10;;;0.10;;
16770;SDS011;8503;52.472;13.344;2024-03-07T07:42:28;0.10;;;0.10;;
16770;SDS011;8503;52.472;13.344;2024-03-07T07:43:51;0.10;;;0.10;;
16770;SDS011;8503;52.472;13.344;2024-03-07T07:45:16;0.10;;;0.10;;
16770;SDS011;8503;52.472;13.344;2024-03-07T07:46:38;0.38;;;0.38;;
16770;SDS011;8503;52.472;13.344;2024-03-07T07:48:03;0.10;;;0.10;;
16770;SDS011;8503;52.472;13.344;2024-03-07T07:49:26;0.10;;;0.10;;
16770;SDS011;8503;52.472;13.344;2024-03-07T07:50:54;0.10;;;0.10;;
16770;SDS011;8503;52.472;13.344;2024-03-07T07:52:18;0.10;;;0.10;;
16770;SDS011;8503;52.472;13.344;2024-03-07T07:53:40;0.10;;;0.10;;
16770;SDS011;8503;52.472;13.344;2024-03-07T07:56:33;0.20;;;0.20;;
16770;SDS011;8503;52.472;13.344;2024-03-07T07:57:57;0.10;;;0.10;;
16770;SDS011;8503;52.472;13.344;2024-03-07T07:59:21;0.10;;;0.10;;
16770;SDS011;8503;52.472;13.344;2024-03-07T08:00:45;0.10;;;0.10;;
16770;SDS011;8503;52.472;13.344;2024-03-07T08:02:10;0.10;;;0.10;;
16770;SDS011;8503;52.472;13.344;2024-03-07T08:03:33;0.30;;;0.30;;
16770;SDS011;8503;52.472;13.344;2024-03-07T08:06:20;0.10;;;0.10;;
16770;SDS011;8503;52.472;13.344;2024-03-07T08:07:45;0.10;;;0.10;;
16770;SDS011;8503;52.472;13.344;2024-03-07T08:09:09;0.10;;;0.10;;
16770;SDS011;8503;52.472;13.344;2024-03-07T08:10:38;0.10;;;0.10;;
16770;SDS011;8503;52.472;13.344;2024-03-07T08:12:04;0.10;;;0.10;;
16770;SDS011;8503;52.472;13.344;2024-03-07T08:13:28;0.10;;;0.10;;
16770;SDS011;8503;52.472;13.344;2024-03-07T08:14:51;0.10;;;0.10;;
16770;SDS011;8503;52.472;13.344;2024-03-07T08:16:16;0.10;;;0.10;;
16770;SDS011;8503;52.472;13.344;2024-03-07T08:17:39;0.10;;;0.10;;
16770;SDS011;8503;52.472;13.344;2024-03-07T08:19:05;0.10;;;0.10;;
16770;SDS011;8503;52.472;13.344;2024-03-07T08:20:28;0.30;;;0.30;;
16770;SDS011;8503;52.472;13.344;2024-03-07T08:21:53;0.10;;;0.10;;
16770;SDS011;8503;52.472;13.344;2024-03-07T08:23:16;0.20;;;0.20;;
16770;SDS011;8503;52.472;13.344;2024-03-07T08:24:39;0.10;;;0.10;;
16770;SDS011;8503;52.472;13.344;2024-03-07T08:26:02;0.20;;;0.20;;
16770;SDS011;8503;52.472;13.344;2024-03-07T08:27:26;0.10;;;0.10;;
16770;SDS011;8503;52.472;13.344;2024-03-07T08:28:49;0.17;;;0.10;;
16770;SDS011;8503;52.472;13.344;2024-03-07T08:30:15;0.10;;;0.10;;
16770;SDS011;8503;52.472;13.344;2024-03-07T08:31:39;0.10;;;0.10;;
16770;SDS011;8503;52.472;13.344;2024-03-07T08:33:02;0.03;;;0.03;;
16770;SDS011;8503;52.472;13.344;2024-03-07T08:34:27;0.10;;;0.10;;
16770;SDS011;8503;52.472;13.344;2024-03-07T08:35:52;0.10;;;0.10;;
16770;SDS011;8503;52.472;13.344;2024-03-07T08:37:14;0.10;;;0.10;;
16770;SDS011;8503;52.472;13.344;2024-03-07T08:38:38;0.00;;;0.00;;
16770;SDS011;8503;52.472;13.344;2024-03-07T08:40:01;0.05;;;0.05;;
16770;SDS011;8503;52.472;13.344;2024-03-07T08:41:25;0.10;;;0.10;;